createdAt,value
2022-10-21T00:00:12.041Z,72.33
2022-10-21T00:03:17.582Z,72.63
2022-10-21T00:06:19.598Z,73.08
2022-10-21T00:09:21.698Z,72.32
2022-10-21T00:12:23.905Z,72.03
2022-10-21T00:15:26.664Z,71.64
2022-10-21T00:18:29.495Z,71.80
2022-10-21T00:21:31.632Z,70.86
2022-10-21T00:24:33.905Z,70.80
2022-10-21T00:31:43.664Z,71.81
2022-10-21T00:34:47.080Z,72.93
2022-10-21T00:37:50.387Z,72.24
2022-10-21T00:40:52.532Z,72.94
2022-10-21T00:44:00.625Z,72.69
2022-10-21T00:47:09.968Z,72.32
2022-10-21T00:50:28.026Z,71.84
2022-10-21T00:53:31.954Z,71.79
2022-10-21T00:56:35.620Z,71.47
2022-10-21T00:59:42.482Z,71.17
2022-10-21T01:02:45.073Z,70.45
2022-10-21T01:05:48.030Z,70.87
2022-10-21T01:08:51.401Z,70.94
2022-10-21T01:11:54.372Z,70.93
2022-10-21T01:15:04.208Z,70.34
2022-10-21T01:18:21.873Z,72.22
2022-10-21T01:21:34.934Z,72.40
2022-10-21T01:24:45.594Z,72.52
2022-10-21T01:28:02.780Z,72.49
2022-10-21T01:31:33.060Z,72.46
2022-10-21T01:34:44.234Z,72.13
2022-10-21T01:37:49.444Z,71.81
2022-10-21T01:41:09.335Z,72.06
2022-10-21T01:44:43.233Z,71.68
2022-10-21T01:47:53.559Z,71.84
2022-10-21T01:51:00.282Z,71.90
2022-10-21T01:54:10.468Z,70.31
2022-10-21T01:57:17.008Z,70.24
2022-10-21T02:00:19.716Z,69.55
2022-10-21T02:03:25.398Z,70.60
2022-10-21T02:06:27.488Z,69.41
2022-10-21T02:12:39.819Z,70.02
2022-10-21T02:15:45.240Z,70.12
2022-10-21T02:18:47.301Z,71.33
2022-10-21T02:21:53.297Z,71.65
2022-10-21T02:24:58.806Z,72.34
2022-10-21T02:28:01.064Z,71.17
2022-10-21T02:31:36.877Z,70.85
2022-10-21T02:34:50.028Z,71.00
2022-10-21T02:38:06.791Z,70.91
2022-10-21T02:41:16.934Z,69.98
2022-10-21T02:44:19.428Z,68.98
2022-10-21T02:47:21.670Z,69.43
2022-10-21T02:50:23.851Z,68.84
2022-10-21T02:53:25.877Z,69.71
2022-10-21T02:59:35.185Z,69.88
2022-10-21T03:02:37.405Z,70.12
2022-10-21T03:05:39.633Z,70.67
2022-10-21T03:08:41.716Z,71.24
2022-10-21T03:11:43.803Z,71.14
2022-10-21T03:14:45.875Z,72.28
2022-10-21T03:17:47.848Z,73.63
2022-10-21T03:20:52.970Z,73.89
2022-10-21T03:23:55.104Z,73.88
2022-10-21T03:26:57.131Z,73.54
2022-10-21T03:29:59.138Z,72.58
2022-10-21T03:33:01.557Z,73.91
2022-10-21T03:36:03.783Z,73.65
2022-10-21T03:39:05.866Z,73.71
2022-10-21T03:42:07.984Z,73.16
2022-10-21T03:45:10.697Z,73.13
2022-10-21T03:48:12.718Z,74.51
2022-10-21T03:51:14.651Z,73.47
2022-10-21T03:54:18.914Z,73.95
2022-10-21T03:57:20.946Z,74.49
2022-10-21T04:00:24.356Z,76.00
2022-10-21T04:03:28.126Z,77.13
2022-10-21T04:06:30.444Z,76.83
2022-10-21T04:09:32.475Z,77.16
2022-10-21T04:12:34.928Z,76.57
2022-10-21T04:15:36.926Z,76.20
2022-10-21T04:18:38.972Z,76.31
2022-10-21T04:21:41.021Z,76.20
2022-10-21T04:24:43.154Z,74.95
2022-10-21T04:27:49.001Z,76.93
2022-10-21T04:30:51.058Z,77.43
2022-10-21T04:33:53.122Z,77.20
2022-10-21T04:36:55.163Z,77.47
2022-10-21T04:39:57.689Z,77.88
2022-10-21T04:42:59.714Z,77.51
2022-10-21T04:46:01.886Z,77.60
2022-10-21T04:49:03.875Z,77.19
2022-10-21T04:52:06.031Z,77.40
2022-10-21T04:55:08.569Z,76.55
2022-10-21T04:58:11.005Z,77.44
2022-10-21T05:01:13.540Z,73.97
2022-10-21T05:04:16.947Z,69.60
2022-10-21T05:07:19.056Z,65.45
2022-10-21T05:10:22.453Z,62.43
2022-10-21T05:13:24.533Z,61.33
2022-10-21T05:16:26.618Z,65.32
2022-10-21T05:19:31.244Z,70.56
2022-10-21T05:22:33.564Z,75.06
2022-10-21T05:25:35.606Z,77.76
2022-10-21T05:28:37.612Z,78.52
2022-10-21T05:31:39.936Z,76.94
2022-10-21T05:34:42.278Z,78.97
2022-10-21T05:37:44.355Z,79.58
2022-10-21T05:40:46.379Z,80.42
2022-10-21T05:43:48.395Z,80.82
2022-10-21T05:46:50.468Z,82.06
2022-10-21T05:49:53.214Z,80.47
2022-10-21T05:52:58.701Z,80.15
2022-10-21T05:56:03.750Z,78.63
2022-10-21T05:59:07.932Z,78.71
2022-10-21T06:02:12.477Z,78.71
2022-10-21T06:05:14.651Z,78.43
2022-10-21T06:08:18.206Z,81.14
2022-10-21T06:11:20.633Z,79.46
2022-10-21T06:14:23.146Z,71.07
2022-10-21T06:17:25.883Z,73.63
2022-10-21T06:20:27.993Z,77.46
2022-10-21T06:23:30.507Z,76.07
2022-10-21T06:26:36.060Z,80.16
2022-10-21T06:29:39.074Z,78.97
2022-10-21T06:32:41.065Z,77.00
2022-10-21T06:35:43.068Z,74.88
2022-10-21T06:38:45.098Z,74.87
2022-10-21T06:41:47.098Z,71.82
2022-10-21T06:45:03.281Z,72.61
2022-10-21T06:48:05.525Z,72.92
2022-10-21T06:51:10.418Z,71.03
2022-10-21T06:54:12.470Z,66.74
2022-10-21T06:57:14.494Z,65.28
2022-10-21T07:00:16.912Z,66.43
2022-10-21T07:03:19.060Z,65.89
2022-10-21T07:06:21.650Z,65.65
2022-10-21T07:09:23.711Z,64.83
2022-10-21T07:12:27.725Z,63.10
2022-10-21T07:15:29.787Z,63.22
2022-10-21T07:18:33.101Z,62.38
2022-10-21T07:21:35.156Z,61.73
2022-10-21T07:24:37.275Z,61.14
2022-10-21T07:27:41.240Z,60.97
2022-10-21T07:30:46.057Z,61.18
2022-10-21T07:33:48.566Z,61.23
2022-10-21T07:36:52.970Z,61.63
2022-10-21T07:39:55.120Z,61.75
2022-10-21T07:42:58.147Z,62.14
2022-10-21T07:46:03.080Z,62.81
2022-10-21T07:49:08.615Z,63.34
2022-10-21T07:52:10.841Z,64.03
2022-10-21T07:55:13.709Z,64.61
2022-10-21T07:58:15.753Z,64.92
2022-10-21T08:01:19.305Z,65.86
2022-10-21T08:04:30.064Z,66.30
2022-10-21T08:07:33.255Z,66.70
2022-10-21T08:10:40.701Z,67.38
2022-10-21T08:13:43.231Z,67.37
2022-10-21T08:16:45.305Z,67.57
2022-10-21T08:19:47.503Z,67.98
2022-10-21T08:22:49.672Z,68.82
2022-10-21T08:25:55.104Z,68.72
2022-10-21T08:32:05.179Z,70.20
2022-10-21T08:35:07.499Z,71.01
2022-10-21T08:38:10.334Z,71.62
2022-10-21T08:41:30.451Z,70.82
2022-10-21T08:44:55.590Z,70.12
2022-10-21T08:48:03.513Z,69.06
2022-10-21T08:51:07.958Z,69.15
2022-10-21T08:54:24.460Z,69.52
2022-10-21T08:57:26.838Z,69.63
2022-10-21T09:00:36.652Z,69.29
2022-10-21T09:04:00.919Z,68.11
2022-10-21T09:07:09.653Z,68.62
2022-10-21T09:10:52.959Z,68.55
2022-10-21T09:14:13.437Z,67.54
2022-10-21T09:17:18.971Z,67.28
2022-10-21T09:20:52.099Z,68.18
2022-10-21T09:24:31.177Z,70.20
2022-10-21T09:27:51.282Z,70.15
2022-10-21T09:31:00.925Z,70.46
2022-10-21T09:34:07.276Z,70.09
2022-10-21T09:37:21.412Z,69.50
2022-10-21T09:40:26.356Z,68.35
2022-10-21T09:43:29.223Z,68.42
2022-10-21T09:46:32.407Z,68.45
2022-10-21T09:50:02.228Z,68.29
2022-10-21T09:53:06.665Z,67.69
2022-10-21T09:56:25.410Z,68.42
2022-10-21T09:59:32.909Z,67.84
2022-10-21T10:02:41.325Z,67.83
2022-10-21T10:05:49.582Z,66.90
2022-10-21T10:08:51.869Z,66.92
2022-10-21T10:12:04.469Z,66.95
2022-10-21T10:15:29.372Z,65.62
2022-10-21T10:18:34.618Z,66.63
2022-10-21T10:21:37.150Z,65.96
2022-10-21T10:24:41.259Z,65.64
2022-10-21T10:27:55.854Z,65.64
2022-10-21T10:30:58.147Z,65.58
2022-10-21T10:34:07.576Z,79.64
2022-10-21T10:37:21.444Z,80.51
2022-10-21T10:40:27.113Z,79.52
2022-10-21T10:43:34.556Z,78.32
2022-10-21T10:46:38.843Z,77.93
2022-10-21T10:49:43.922Z,77.50
2022-10-21T10:52:45.922Z,77.68
2022-10-21T10:55:57.783Z,75.44
2022-10-21T10:59:05.640Z,73.98
2022-10-21T11:02:10.788Z,72.86
2022-10-21T11:05:15.956Z,72.00
2022-10-21T11:08:36.653Z,72.23
2022-10-21T11:11:43.389Z,71.72
2022-10-21T11:14:51.868Z,70.63
2022-10-21T11:18:17.053Z,70.53
2022-10-21T11:21:45.522Z,70.34
2022-10-21T11:24:55.704Z,69.29
2022-10-21T11:28:09.434Z,68.94
2022-10-21T11:31:37.348Z,68.41
2022-10-21T11:35:09.894Z,69.02
2022-10-21T11:38:47.999Z,68.35
2022-10-21T11:42:15.245Z,68.24
2022-10-21T11:45:50.330Z,68.99
2022-10-21T11:48:58.243Z,68.78
2022-10-21T11:52:39.185Z,68.70
2022-10-21T11:56:05.052Z,68.67
2022-10-21T11:59:21.168Z,68.57
2022-10-21T12:02:58.686Z,68.42
2022-10-21T12:06:07.526Z,69.05
2022-10-21T12:09:22.416Z,68.60
2022-10-21T12:12:31.692Z,68.88
2022-10-21T12:15:41.542Z,68.86
2022-10-21T12:19:06.527Z,69.46
2022-10-21T12:22:11.071Z,68.99
2022-10-21T12:25:24.454Z,69.54
2022-10-21T12:28:57.098Z,69.76
2022-10-21T12:32:14.825Z,68.88
2022-10-21T12:35:26.087Z,68.86
2022-10-21T12:38:53.451Z,69.11
2022-10-21T12:42:16.503Z,68.69
2022-10-21T12:45:44.518Z,69.75
2022-10-21T12:48:49.182Z,69.32
2022-10-21T12:52:03.235Z,69.20
2022-10-21T12:55:22.264Z,69.37
2022-10-21T12:58:45.714Z,69.85
2022-10-21T13:02:10.556Z,69.06
2022-10-21T13:05:12.688Z,68.88
2022-10-21T13:08:20.985Z,69.00
2022-10-21T13:11:34.829Z,68.92
2022-10-21T13:14:43.822Z,69.35
2022-10-21T13:17:53.317Z,69.54
2022-10-21T13:21:00.153Z,69.43
2022-10-21T13:24:13.994Z,69.05
2022-10-21T13:31:01.867Z,72.36
2022-10-21T13:34:04.406Z,72.20
2022-10-21T13:37:21.951Z,72.01
2022-10-21T13:40:36.974Z,74.83
2022-10-21T13:44:00.863Z,74.00
2022-10-21T13:47:39.489Z,74.05
2022-10-21T13:50:57.226Z,74.27
2022-10-21T13:54:08.345Z,74.22
2022-10-21T13:57:12.519Z,74.30
2022-10-21T14:00:19.990Z,74.57
2022-10-21T14:03:26.726Z,74.99
2022-10-21T14:06:32.244Z,74.54
2022-10-21T14:09:39.253Z,74.02
2022-10-21T14:12:45.271Z,74.47
2022-10-21T14:15:49.159Z,73.44
2022-10-21T14:18:52.007Z,72.89
2022-10-21T14:22:00.462Z,72.77
2022-10-21T14:25:02.709Z,72.92
2022-10-21T14:28:05.903Z,71.78
2022-10-21T14:31:13.702Z,72.23
2022-10-21T14:34:26.792Z,71.98
2022-10-21T14:37:36.137Z,71.75
2022-10-21T14:40:42.310Z,70.85
2022-10-21T14:43:46.462Z,69.27
2022-10-21T14:46:53.938Z,64.90
2022-10-21T14:50:00.586Z,61.12
2022-10-21T14:53:03.552Z,68.48
2022-10-21T14:56:07.305Z,66.09
2022-10-21T14:59:28.904Z,55.55
2022-10-21T15:02:36.179Z,50.66
2022-10-21T15:05:48.976Z,47.54
2022-10-21T15:08:57.361Z,45.15
2022-10-21T15:12:18.003Z,43.10
2022-10-21T15:15:41.045Z,41.29
2022-10-21T15:18:44.360Z,39.17
2022-10-21T15:21:48.375Z,38.87
2022-10-21T15:24:51.666Z,37.75
2022-10-21T15:27:55.272Z,36.95
2022-10-21T15:30:59.676Z,37.56
2022-10-21T15:34:01.999Z,37.39
2022-10-21T15:37:04.335Z,39.49
2022-10-21T15:40:06.781Z,39.98
2022-10-21T15:43:10.873Z,40.26
2022-10-21T15:46:13.023Z,40.84
2022-10-21T15:49:24.069Z,40.79
2022-10-21T15:52:26.132Z,41.95
2022-10-21T15:55:28.358Z,43.10
2022-10-21T15:58:32.100Z,42.47
2022-10-21T16:01:34.466Z,44.28
2022-10-21T16:04:36.421Z,43.34
2022-10-21T16:07:38.679Z,45.04
2022-10-21T16:10:47.831Z,45.40
2022-10-21T16:13:50.180Z,44.62
2022-10-21T16:16:54.360Z,44.66
2022-10-21T16:19:56.532Z,45.58
2022-10-21T16:23:02.080Z,45.66
2022-10-21T16:26:23.717Z,48.85
2022-10-21T16:29:25.767Z,51.04
2022-10-21T16:32:27.760Z,52.48
2022-10-21T16:35:31.399Z,53.69
2022-10-21T16:38:33.471Z,53.87
2022-10-21T16:41:35.577Z,53.77
2022-10-21T16:44:37.788Z,53.73
2022-10-21T16:47:48.123Z,54.34
2022-10-21T16:50:50.370Z,52.88
2022-10-21T16:53:52.452Z,51.59
2022-10-21T16:56:55.636Z,52.31
2022-10-21T16:59:57.917Z,54.18
2022-10-21T17:03:00.594Z,55.87
2022-10-21T17:06:02.619Z,56.76
2022-10-21T17:09:04.991Z,57.54
2022-10-21T17:12:07.796Z,58.18
2022-10-21T17:15:15.957Z,58.83
2022-10-21T17:18:18.074Z,58.93
2022-10-21T17:21:25.870Z,59.54
2022-10-21T17:24:28.159Z,60.36
2022-10-21T17:27:30.163Z,59.85
2022-10-21T17:30:32.195Z,60.78
2022-10-21T17:33:34.237Z,61.55
2022-10-21T17:36:37.877Z,62.92
2022-10-21T17:39:41.054Z,62.62
2022-10-21T17:42:43.333Z,63.34
2022-10-21T17:45:45.531Z,64.13
2022-10-21T17:48:52.239Z,63.89
2022-10-21T17:51:54.484Z,65.10
2022-10-21T17:54:56.615Z,64.97
2022-10-21T17:57:58.651Z,66.07
2022-10-21T18:01:06.775Z,65.98
2022-10-21T18:04:13.362Z,68.28
2022-10-21T18:07:17.878Z,74.29
2022-10-21T18:10:21.777Z,79.05
2022-10-21T18:13:25.994Z,74.75
2022-10-21T18:16:28.248Z,72.68
2022-10-21T18:19:30.274Z,69.88
2022-10-21T18:22:32.305Z,69.34
2022-10-21T18:25:38.387Z,68.02
2022-10-21T18:28:40.558Z,67.94
2022-10-21T18:31:42.654Z,66.73
2022-10-21T18:34:46.099Z,66.80
2022-10-21T18:37:48.807Z,66.30
2022-10-21T18:41:01.970Z,65.36
2022-10-21T18:44:15.496Z,64.77
2022-10-21T18:47:17.702Z,65.06
2022-10-21T18:50:20.823Z,64.05
2022-10-21T18:53:24.017Z,64.87
2022-10-21T18:56:27.745Z,64.07
2022-10-21T18:59:29.925Z,64.87
2022-10-21T19:02:32.062Z,63.79
2022-10-21T19:05:39.403Z,64.01
2022-10-21T19:08:44.224Z,63.44
2022-10-21T19:11:47.020Z,63.14
2022-10-21T19:14:49.737Z,63.35
2022-10-21T19:17:52.011Z,63.89
2022-10-21T19:21:01.394Z,62.71
2022-10-21T19:24:04.566Z,63.89
2022-10-21T19:27:06.714Z,64.15
2022-10-21T19:30:11.658Z,63.67
2022-10-21T19:33:14.512Z,63.16
2022-10-21T19:36:17.548Z,63.54
2022-10-21T19:39:19.950Z,63.75
2022-10-21T19:42:24.248Z,63.82
2022-10-21T19:45:26.464Z,63.58
2022-10-21T19:48:28.531Z,64.07
2022-10-21T19:51:31.354Z,63.96
2022-10-21T19:54:34.668Z,63.41
2022-10-21T19:57:36.735Z,64.73
2022-10-21T20:00:39.027Z,63.65
2022-10-21T20:03:43.378Z,63.44
2022-10-21T20:06:45.603Z,63.81
2022-10-21T20:09:53.233Z,63.70
2022-10-21T20:13:00.575Z,64.17
2022-10-21T20:16:03.052Z,63.74
2022-10-21T20:19:06.910Z,63.38
2022-10-21T20:22:10.304Z,63.50
2022-10-21T20:25:13.718Z,64.53
2022-10-21T20:28:16.702Z,64.16
2022-10-21T20:31:19.452Z,63.55
2022-10-21T20:34:22.210Z,64.59
2022-10-21T20:37:24.352Z,63.21
2022-10-21T20:40:27.571Z,63.20
2022-10-21T20:43:30.291Z,63.61
2022-10-21T20:46:36.967Z,63.08
2022-10-21T20:49:40.046Z,64.11
2022-10-21T20:52:42.223Z,63.77
2022-10-21T20:55:54.193Z,64.04
2022-10-21T20:59:00.374Z,63.69
2022-10-21T21:02:02.580Z,64.26
2022-10-21T21:05:05.109Z,64.02
2022-10-21T21:08:08.272Z,64.03
2022-10-21T21:11:14.582Z,64.19
2022-10-21T21:14:16.882Z,64.09
2022-10-21T21:17:19.030Z,63.73
2022-10-21T21:20:21.974Z,63.70
2022-10-21T21:23:23.986Z,63.25
2022-10-21T21:26:29.561Z,62.67
2022-10-21T21:29:31.661Z,62.85
2022-10-21T21:32:33.794Z,62.81
2022-10-21T21:35:35.883Z,62.10
2022-10-21T21:38:38.072Z,61.72
2022-10-21T21:41:40.390Z,62.30
2022-10-21T21:44:44.246Z,62.67
2022-10-21T21:47:46.889Z,62.67
2022-10-21T21:50:50.394Z,62.47
2022-10-21T21:53:53.192Z,62.67
2022-10-21T21:57:16.016Z,63.32
2022-10-21T22:00:17.905Z,62.72
2022-10-21T22:03:24.669Z,62.58
2022-10-21T22:06:29.920Z,63.01
2022-10-21T22:09:32.022Z,63.18
2022-10-21T22:12:34.446Z,63.20
2022-10-21T22:15:47.642Z,63.45
2022-10-21T22:18:51.032Z,63.08
2022-10-21T22:21:53.026Z,63.61
2022-10-21T22:24:55.145Z,63.99
2022-10-21T22:27:57.473Z,63.55
2022-10-21T22:31:05.703Z,64.18
2022-10-21T22:34:11.031Z,63.89
2022-10-21T22:37:15.530Z,64.09
2022-10-21T22:40:18.463Z,64.00
2022-10-21T22:43:20.721Z,64.06
2022-10-21T22:46:34.407Z,64.05
2022-10-21T22:49:38.157Z,64.32
2022-10-21T22:52:42.546Z,64.23
2022-10-21T22:55:44.925Z,64.38
2022-10-21T22:58:47.059Z,64.83
2022-10-21T23:01:53.610Z,64.07
2022-10-21T23:04:57.207Z,63.72
2022-10-21T23:07:59.428Z,64.10
2022-10-21T23:11:02.367Z,64.21
2022-10-21T23:14:08.749Z,64.37
2022-10-21T23:17:11.158Z,64.11
2022-10-21T23:20:13.381Z,63.66
2022-10-21T23:23:15.508Z,63.87
2022-10-21T23:26:17.567Z,64.19
2022-10-21T23:29:19.727Z,64.71
2022-10-21T23:32:22.077Z,64.63
2022-10-21T23:35:24.236Z,64.79
2022-10-21T23:38:26.376Z,65.00
2022-10-21T23:41:28.425Z,64.74
2022-10-21T23:44:30.650Z,64.67
2022-10-21T23:47:32.644Z,65.31
2022-10-21T23:50:35.062Z,64.87
2022-10-21T23:53:37.421Z,64.33
2022-10-21T23:56:40.258Z,64.52
2022-10-21T23:59:42.377Z,64.00
